Главная страница
METAR-TAF:

METAR-TAF

Аэропорты :

Военно-морская академия США

Аннаполис, Мэриленд, США

широта: 38-59-29N, долгота: 076-29-00W, высота над уровнем моря: 2 м

Текущие метеонаблюдения

Эта сводка был подготовлена 41 минут назад, в 12:54 UTC
Штиль
Температура 2°C
Влажность 64%
Давление 1022 hPa
Видимость: 16.1 км
ясное небо

METAR: KNAK 211254Z AUTO 00000KT 10SM CLR 02/M04 A3017 RMK AO2 SLP219 T00221039 $

Время: 08:35 (13:35 UTC)


TAF: отсутствует

Метеонаблюдения и прогнозы для более 4000 аэропортов (сводки METAR и TAF).

Имеющиеся станции представлены на карте желтыми и красными точками.

Чтобы увидеть название станции, наведите на нее мышь.

Затем щелкните, чтобы увидеть метеонаблюдения и метеопрогнозы.

Управление картой: чтобы увеличить масштаб, щелкните зеленые кнопки с черным крестиком; чтобы уменьшить масштаб, щелкните зеленую кнопку с тире; для просмотра соседних карт щелкайте зеленые стрелки.


METAR-TAF: